sensor_id;sensor_type;location;lat;lon;timestamp;P1;durP1;ratioP1;P2;durP2;ratioP2
40669;SDS011;26355;45.528;9.234;2023-06-14T00:00:39;23.15;;;12.20;;
40669;SDS011;26355;45.528;9.234;2023-06-14T00:03:06;18.67;;;9.63;;
40669;SDS011;26355;45.528;9.234;2023-06-14T00:05:33;23.77;;;11.70;;
40669;SDS011;26355;45.528;9.234;2023-06-14T00:08:03;22.10;;;11.75;;
40669;SDS011;26355;45.528;9.234;2023-06-14T00:10:32;21.05;;;10.98;;
40669;SDS011;26355;45.528;9.234;2023-06-14T00:13:00;22.92;;;11.40;;
40669;SDS011;26355;45.528;9.234;2023-06-14T00:15:26;19.75;;;10.50;;
40669;SDS011;26355;45.528;9.234;2023-06-14T00:17:51;20.95;;;10.77;;
40669;SDS011;26355;45.528;9.234;2023-06-14T00:20:17;19.88;;;11.02;;
40669;SDS011;26355;45.528;9.234;2023-06-14T00:22:43;19.50;;;11.10;;
40669;SDS011;26355;45.528;9.234;2023-06-14T00:25:10;19.55;;;10.10;;
40669;SDS011;26355;45.528;9.234;2023-06-14T00:27:35;22.27;;;11.25;;
40669;SDS011;26355;45.528;9.234;2023-06-14T00:30:01;20.67;;;12.02;;
40669;SDS011;26355;45.528;9.234;2023-06-14T00:32:27;20.92;;;12.43;;
40669;SDS011;26355;45.528;9.234;2023-06-14T00:34:52;23.25;;;13.25;;
40669;SDS011;26355;45.528;9.234;2023-06-14T00:37:18;23.00;;;14.13;;
40669;SDS011;26355;45.528;9.234;2023-06-14T00:39:44;24.42;;;13.95;;
40669;SDS011;26355;45.528;9.234;2023-06-14T00:42:09;22.60;;;13.85;;
40669;SDS011;26355;45.528;9.234;2023-06-14T00:44:35;23.20;;;13.82;;
40669;SDS011;26355;45.528;9.234;2023-06-14T00:47:00;22.67;;;13.68;;
40669;SDS011;26355;45.528;9.234;2023-06-14T00:49:26;23.90;;;13.90;;
40669;SDS011;26355;45.528;9.234;2023-06-14T00:51:54;23.73;;;12.13;;
40669;SDS011;26355;45.528;9.234;2023-06-14T00:54:20;19.02;;;9.65;;
40669;SDS011;26355;45.528;9.234;2023-06-14T00:56:46;19.17;;;9.82;;
40669;SDS011;26355;45.528;9.234;2023-06-14T00:59:11;18.83;;;10.60;;
40669;SDS011;26355;45.528;9.234;2023-06-14T01:01:37;20.05;;;10.73;;
40669;SDS011;26355;45.528;9.234;2023-06-14T01:04:03;18.90;;;9.30;;
40669;SDS011;26355;45.528;9.234;2023-06-14T01:06:34;18.10;;;9.60;;
40669;SDS011;26355;45.528;9.234;2023-06-14T01:09:20;16.50;;;7.90;;
40669;SDS011;26355;45.528;9.234;2023-06-14T01:12:00;17.83;;;8.60;;
40669;SDS011;26355;45.528;9.234;2023-06-14T01:16:52;17.50;;;8.17;;
40669;SDS011;26355;45.528;9.234;2023-06-14T01:19:18;17.65;;;9.15;;
40669;SDS011;26355;45.528;9.234;2023-06-14T01:21:47;17.80;;;8.85;;
40669;SDS011;26355;45.528;9.234;2023-06-14T01:24:16;19.25;;;8.93;;
40669;SDS011;26355;45.528;9.234;2023-06-14T01:26:44;16.08;;;7.93;;
40669;SDS011;26355;45.528;9.234;2023-06-14T01:29:11;17.67;;;8.35;;
40669;SDS011;26355;45.528;9.234;2023-06-14T01:31:41;16.98;;;7.22;;
40669;SDS011;26355;45.528;9.234;2023-06-14T01:34:07;16.35;;;7.38;;
40669;SDS011;26355;45.528;9.234;2023-06-14T01:36:33;17.30;;;7.93;;
40669;SDS011;26355;45.528;9.234;2023-06-14T01:39:04;16.15;;;7.45;;
40669;SDS011;26355;45.528;9.234;2023-06-14T01:41:31;15.32;;;7.03;;
40669;SDS011;26355;45.528;9.234;2023-06-14T01:43:57;16.05;;;6.68;;
40669;SDS011;26355;45.528;9.234;2023-06-14T01:46:23;16.67;;;7.13;;
40669;SDS011;26355;45.528;9.234;2023-06-14T01:48:50;14.60;;;6.47;;
40669;SDS011;26355;45.528;9.234;2023-06-14T01:51:16;15.75;;;6.63;;
40669;SDS011;26355;45.528;9.234;2023-06-14T01:53:41;14.88;;;6.38;;
40669;SDS011;26355;45.528;9.234;2023-06-14T01:56:07;14.43;;;6.18;;
40669;SDS011;26355;45.528;9.234;2023-06-14T01:58:32;13.82;;;5.55;;
40669;SDS011;26355;45.528;9.234;2023-06-14T02:00:58;13.48;;;5.57;;
40669;SDS011;26355;45.528;9.234;2023-06-14T02:03:25;14.35;;;5.68;;
40669;SDS011;26355;45.528;9.234;2023-06-14T02:05:52;13.27;;;5.00;;
40669;SDS011;26355;45.528;9.234;2023-06-14T02:08:17;13.90;;;5.72;;
40669;SDS011;26355;45.528;9.234;2023-06-14T02:10:43;13.05;;;5.10;;
40669;SDS011;26355;45.528;9.234;2023-06-14T02:13:09;12.70;;;4.97;;
40669;SDS011;26355;45.528;9.234;2023-06-14T02:15:34;14.07;;;5.13;;
40669;SDS011;26355;45.528;9.234;2023-06-14T02:18:01;13.18;;;4.85;;
40669;SDS011;26355;45.528;9.234;2023-06-14T02:20:28;12.48;;;4.60;;
40669;SDS011;26355;45.528;9.234;2023-06-14T02:22:56;12.43;;;4.93;;
40669;SDS011;26355;45.528;9.234;2023-06-14T02:25:22;13.55;;;4.82;;
40669;SDS011;26355;45.528;9.234;2023-06-14T02:27:48;13.48;;;4.80;;
40669;SDS011;26355;45.528;9.234;2023-06-14T02:30:13;12.38;;;4.85;;
40669;SDS011;26355;45.528;9.234;2023-06-14T02:32:40;12.15;;;4.40;;
40669;SDS011;26355;45.528;9.234;2023-06-14T02:35:07;12.60;;;4.40;;
40669;SDS011;26355;45.528;9.234;2023-06-14T02:37:33;12.30;;;4.43;;
40669;SDS011;26355;45.528;9.234;2023-06-14T02:39:59;13.18;;;3.83;;
40669;SDS011;26355;45.528;9.234;2023-06-14T02:42:24;11.82;;;3.97;;
40669;SDS011;26355;45.528;9.234;2023-06-14T02:44:50;11.35;;;3.80;;
40669;SDS011;26355;45.528;9.234;2023-06-14T02:47:17;13.38;;;4.47;;
40669;SDS011;26355;45.528;9.234;2023-06-14T02:49:43;10.23;;;3.47;;
40669;SDS011;26355;45.528;9.234;2023-06-14T02:52:11;10.93;;;3.65;;
40669;SDS011;26355;45.528;9.234;2023-06-14T02:54:37;11.45;;;3.55;;
40669;SDS011;26355;45.528;9.234;2023-06-14T02:57:02;13.18;;;3.80;;
40669;SDS011;26355;45.528;9.234;2023-06-14T02:59:28;10.15;;;3.58;;
40669;SDS011;26355;45.528;9.234;2023-06-14T03:01:53;10.57;;;3.53;;
40669;SDS011;26355;45.528;9.234;2023-06-14T03:04:19;13.85;;;3.60;;
40669;SDS011;26355;45.528;9.234;2023-06-14T03:06:45;11.30;;;3.97;;
40669;SDS011;26355;45.528;9.234;2023-06-14T03:09:15;11.63;;;3.45;;
40669;SDS011;26355;45.528;9.234;2023-06-14T03:11:41;9.13;;;3.25;;
40669;SDS011;26355;45.528;9.234;2023-06-14T03:14:06;11.55;;;3.45;;
40669;SDS011;26355;45.528;9.234;2023-06-14T03:16:33;11.75;;;3.83;;
40669;SDS011;26355;45.528;9.234;2023-06-14T03:18:59;9.32;;;3.42;;
40669;SDS011;26355;45.528;9.234;2023-06-14T03:21:24;10.65;;;3.58;;
40669;SDS011;26355;45.528;9.234;2023-06-14T03:23:51;9.98;;;3.50;;
40669;SDS011;26355;45.528;9.234;2023-06-14T03:26:18;11.23;;;3.75;;
40669;SDS011;26355;45.528;9.234;2023-06-14T03:28:46;12.13;;;4.00;;
40669;SDS011;26355;45.528;9.234;2023-06-14T03:31:14;11.45;;;3.67;;
40669;SDS011;26355;45.528;9.234;2023-06-14T03:33:41;10.20;;;3.67;;
40669;SDS011;26355;45.528;9.234;2023-06-14T03:36:06;11.93;;;3.70;;
40669;SDS011;26355;45.528;9.234;2023-06-14T03:38:32;10.40;;;3.20;;
40669;SDS011;26355;45.528;9.234;2023-06-14T03:40:58;8.80;;;3.30;;
40669;SDS011;26355;45.528;9.234;2023-06-14T03:43:23;9.32;;;3.17;;
40669;SDS011;26355;45.528;9.234;2023-06-14T03:45:49;11.75;;;3.70;;
40669;SDS011;26355;45.528;9.234;2023-06-14T03:48:16;10.88;;;3.20;;
40669;SDS011;26355;45.528;9.234;2023-06-14T03:50:41;10.80;;;3.40;;
40669;SDS011;26355;45.528;9.234;2023-06-14T03:53:08;8.70;;;3.13;;
40669;SDS011;26355;45.528;9.234;2023-06-14T03:55:34;8.60;;;3.20;;
40669;SDS011;26355;45.528;9.234;2023-06-14T03:58:00;8.23;;;2.97;;
40669;SDS011;26355;45.528;9.234;2023-06-14T04:00:25;9.88;;;3.47;;
40669;SDS011;26355;45.528;9.234;2023-06-14T04:02:52;9.68;;;3.38;;
40669;SDS011;26355;45.528;9.234;2023-06-14T04:05:18;9.88;;;3.35;;
40669;SDS011;26355;45.528;9.234;2023-06-14T04:07:44;8.93;;;3.15;;
40669;SDS011;26355;45.528;9.234;2023-06-14T04:10:13;8.68;;;3.10;;
40669;SDS011;26355;45.528;9.234;2023-06-14T04:12:40;9.68;;;3.33;;
40669;SDS011;26355;45.528;9.234;2023-06-14T04:15:06;8.65;;;3.17;;
40669;SDS011;26355;45.528;9.234;2023-06-14T04:17:33;7.78;;;2.85;;
40669;SDS011;26355;45.528;9.234;2023-06-14T04:19:59;9.05;;;3.30;;
40669;SDS011;26355;45.528;9.234;2023-06-14T04:22:25;9.13;;;3.40;;
40669;SDS011;26355;45.528;9.234;2023-06-14T04:24:55;10.07;;;3.25;;
40669;SDS011;26355;45.528;9.234;2023-06-14T04:27:24;10.98;;;3.80;;
40669;SDS011;26355;45.528;9.234;2023-06-14T04:29:54;10.05;;;3.38;;
40669;SDS011;26355;45.528;9.234;2023-06-14T04:32:24;9.50;;;3.22;;
40669;SDS011;26355;45.528;9.234;2023-06-14T04:34:54;9.70;;;3.38;;
40669;SDS011;26355;45.528;9.234;2023-06-14T04:37:21;7.70;;;3.17;;
40669;SDS011;26355;45.528;9.234;2023-06-14T04:39:50;11.10;;;3.67;;
40669;SDS011;26355;45.528;9.234;2023-06-14T04:42:16;11.10;;;3.55;;
40669;SDS011;26355;45.528;9.234;2023-06-14T04:44:45;10.60;;;3.70;;
40669;SDS011;26355;45.528;9.234;2023-06-14T04:47:12;10.98;;;3.78;;
40669;SDS011;26355;45.528;9.234;2023-06-14T04:49:39;10.45;;;3.58;;
40669;SDS011;26355;45.528;9.234;2023-06-14T04:52:05;9.70;;;3.40;;
40669;SDS011;26355;45.528;9.234;2023-06-14T04:54:31;10.18;;;3.60;;
40669;SDS011;26355;45.528;9.234;2023-06-14T04:56:58;9.93;;;3.88;;
40669;SDS011;26355;45.528;9.234;2023-06-14T04:59:24;11.07;;;3.58;;
40669;SDS011;26355;45.528;9.234;2023-06-14T05:01:50;10.63;;;3.67;;
40669;SDS011;26355;45.528;9.234;2023-06-14T05:04:16;10.52;;;3.85;;
40669;SDS011;26355;45.528;9.234;2023-06-14T05:06:46;9.00;;;3.25;;
40669;SDS011;26355;45.528;9.234;2023-06-14T05:09:14;11.57;;;4.10;;
40669;SDS011;26355;45.528;9.234;2023-06-14T05:11:43;11.13;;;4.20;;
40669;SDS011;26355;45.528;9.234;2023-06-14T05:14:09;15.10;;;4.82;;
40669;SDS011;26355;45.528;9.234;2023-06-14T05:16:36;15.07;;;4.65;;
40669;SDS011;26355;45.528;9.234;2023-06-14T05:19:02;13.60;;;5.13;;
40669;SDS011;26355;45.528;9.234;2023-06-14T05:23:54;12.38;;;4.00;;
40669;SDS011;26355;45.528;9.234;2023-06-14T05:26:20;21.23;;;4.85;;
40669;SDS011;26355;45.528;9.234;2023-06-14T05:28:48;14.13;;;5.00;;
40669;SDS011;26355;45.528;9.234;2023-06-14T05:31:15;11.68;;;4.00;;
40669;SDS011;26355;45.528;9.234;2023-06-14T05:33:40;13.30;;;3.90;;
40669;SDS011;26355;45.528;9.234;2023-06-14T05:36:06;10.25;;;4.00;;
40669;SDS011;26355;45.528;9.234;2023-06-14T05:38:32;10.27;;;3.72;;
40669;SDS011;26355;45.528;9.234;2023-06-14T05:40:57;13.02;;;4.10;;
40669;SDS011;26355;45.528;9.234;2023-06-14T05:43:24;13.43;;;4.20;;
40669;SDS011;26355;45.528;9.234;2023-06-14T05:45:49;12.13;;;4.35;;
40669;SDS011;26355;45.528;9.234;2023-06-14T05:48:15;13.38;;;4.60;;
40669;SDS011;26355;45.528;9.234;2023-06-14T05:50:40;13.50;;;4.15;;
40669;SDS011;26355;45.528;9.234;2023-06-14T05:53:06;13.45;;;4.50;;
40669;SDS011;26355;45.528;9.234;2023-06-14T05:55:31;12.45;;;4.55;;
40669;SDS011;26355;45.528;9.234;2023-06-14T05:57:57;11.73;;;4.18;;
40669;SDS011;26355;45.528;9.234;2023-06-14T06:00:22;10.88;;;3.80;;
40669;SDS011;26355;45.528;9.234;2023-06-14T06:02:48;12.75;;;4.30;;
40669;SDS011;26355;45.528;9.234;2023-06-14T06:05:14;12.25;;;4.10;;
40669;SDS011;26355;45.528;9.234;2023-06-14T06:07:40;11.23;;;4.10;;
40669;SDS011;26355;45.528;9.234;2023-06-14T06:10:06;11.40;;;3.92;;
40669;SDS011;26355;45.528;9.234;2023-06-14T06:12:32;12.93;;;4.68;;
40669;SDS011;26355;45.528;9.234;2023-06-14T06:14:58;11.98;;;4.20;;
40669;SDS011;26355;45.528;9.234;2023-06-14T06:17:25;13.00;;;4.20;;
40669;SDS011;26355;45.528;9.234;2023-06-14T06:19:51;14.67;;;5.20;;
40669;SDS011;26355;45.528;9.234;2023-06-14T06:22:16;14.52;;;5.07;;
40669;SDS011;26355;45.528;9.234;2023-06-14T06:24:42;14.05;;;5.13;;
40669;SDS011;26355;45.528;9.234;2023-06-14T06:27:08;13.48;;;5.22;;
40669;SDS011;26355;45.528;9.234;2023-06-14T06:29:34;13.40;;;4.97;;
40669;SDS011;26355;45.528;9.234;2023-06-14T06:32:00;16.08;;;5.50;;
40669;SDS011;26355;45.528;9.234;2023-06-14T06:34:26;12.73;;;5.30;;
40669;SDS011;26355;45.528;9.234;2023-06-14T06:36:51;14.32;;;4.88;;
40669;SDS011;26355;45.528;9.234;2023-06-14T06:39:17;14.77;;;5.63;;
40669;SDS011;26355;45.528;9.234;2023-06-14T06:41:42;12.25;;;4.70;;
40669;SDS011;26355;45.528;9.234;2023-06-14T06:44:08;13.25;;;5.10;;
40669;SDS011;26355;45.528;9.234;2023-06-14T06:46:35;13.48;;;5.18;;
40669;SDS011;26355;45.528;9.234;2023-06-14T06:49:05;13.50;;;5.05;;
40669;SDS011;26355;45.528;9.234;2023-06-14T06:51:31;13.20;;;5.18;;
40669;SDS011;26355;45.528;9.234;2023-06-14T06:53:56;16.30;;;5.50;;
40669;SDS011;26355;45.528;9.234;2023-06-14T06:56:23;17.40;;;5.63;;
40669;SDS011;26355;45.528;9.234;2023-06-14T06:58:49;16.73;;;5.93;;
40669;SDS011;26355;45.528;9.234;2023-06-14T07:01:16;15.18;;;5.93;;
40669;SDS011;26355;45.528;9.234;2023-06-14T07:03:42;14.98;;;6.10;;
40669;SDS011;26355;45.528;9.234;2023-06-14T07:06:08;14.68;;;5.78;;
40669;SDS011;26355;45.528;9.234;2023-06-14T07:08:33;15.02;;;6.22;;
40669;SDS011;26355;45.528;9.234;2023-06-14T07:10:59;15.43;;;6.30;;
40669;SDS011;26355;45.528;9.234;2023-06-14T07:13:25;15.82;;;5.78;;
40669;SDS011;26355;45.528;9.234;2023-06-14T07:15:50;14.60;;;5.65;;
40669;SDS011;26355;45.528;9.234;2023-06-14T07:18:18;15.30;;;6.10;;
40669;SDS011;26355;45.528;9.234;2023-06-14T07:20:44;15.02;;;6.03;;
40669;SDS011;26355;45.528;9.234;2023-06-14T07:23:10;15.15;;;5.82;;
40669;SDS011;26355;45.528;9.234;2023-06-14T07:25:36;14.50;;;6.07;;
40669;SDS011;26355;45.528;9.234;2023-06-14T07:28:01;16.17;;;6.53;;
40669;SDS011;26355;45.528;9.234;2023-06-14T07:30:27;15.77;;;6.88;;
40669;SDS011;26355;45.528;9.234;2023-06-14T07:32:54;16.63;;;6.00;;
40669;SDS011;26355;45.528;9.234;2023-06-14T07:35:20;18.15;;;6.90;;
40669;SDS011;26355;45.528;9.234;2023-06-14T07:37:46;15.73;;;6.72;;
40669;SDS011;26355;45.528;9.234;2023-06-14T07:40:12;16.95;;;7.05;;
40669;SDS011;26355;45.528;9.234;2023-06-14T07:42:38;17.25;;;7.18;;
40669;SDS011;26355;45.528;9.234;2023-06-14T07:45:04;16.98;;;6.63;;
40669;SDS011;26355;45.528;9.234;2023-06-14T07:47:31;15.95;;;6.68;;
40669;SDS011;26355;45.528;9.234;2023-06-14T07:49:57;20.85;;;7.75;;
40669;SDS011;26355;45.528;9.234;2023-06-14T07:52:23;16.63;;;7.03;;
40669;SDS011;26355;45.528;9.234;2023-06-14T07:54:49;16.02;;;6.85;;
40669;SDS011;26355;45.528;9.234;2023-06-14T07:57:15;18.30;;;7.47;;
40669;SDS011;26355;45.528;9.234;2023-06-14T07:59:41;17.55;;;7.55;;
40669;SDS011;26355;45.528;9.234;2023-06-14T08:02:06;16.42;;;7.13;;
40669;SDS011;26355;45.528;9.234;2023-06-14T08:04:32;17.52;;;8.32;;
40669;SDS011;26355;45.528;9.234;2023-06-14T08:06:58;18.42;;;7.72;;
40669;SDS011;26355;45.528;9.234;2023-06-14T08:09:24;18.67;;;8.52;;
40669;SDS011;26355;45.528;9.234;2023-06-14T08:11:52;19.80;;;7.70;;
40669;SDS011;26355;45.528;9.234;2023-06-14T08:14:18;17.17;;;7.97;;
40669;SDS011;26355;45.528;9.234;2023-06-14T08:16:43;17.02;;;7.40;;
40669;SDS011;26355;45.528;9.234;2023-06-14T08:19:09;18.02;;;7.20;;
40669;SDS011;26355;45.528;9.234;2023-06-14T08:21:35;17.90;;;7.80;;
40669;SDS011;26355;45.528;9.234;2023-06-14T08:24:01;17.50;;;7.82;;
40669;SDS011;26355;45.528;9.234;2023-06-14T08:26:27;16.55;;;7.32;;
40669;SDS011;26355;45.528;9.234;2023-06-14T08:28:56;19.42;;;6.95;;
40669;SDS011;26355;45.528;9.234;2023-06-14T08:31:22;17.98;;;6.43;;
40669;SDS011;26355;45.528;9.234;2023-06-14T08:33:49;19.13;;;8.07;;
40669;SDS011;26355;45.528;9.234;2023-06-14T08:36:15;17.77;;;7.25;;
40669;SDS011;26355;45.528;9.234;2023-06-14T08:38:40;17.52;;;7.32;;
40669;SDS011;26355;45.528;9.234;2023-06-14T08:41:06;16.35;;;7.03;;
40669;SDS011;26355;45.528;9.234;2023-06-14T08:43:33;17.47;;;8.20;;
40669;SDS011;26355;45.528;9.234;2023-06-14T08:46:00;19.30;;;8.93;;
40669;SDS011;26355;45.528;9.234;2023-06-14T08:48:29;18.63;;;7.43;;
40669;SDS011;26355;45.528;9.234;2023-06-14T08:50:58;17.13;;;7.38;;
40669;SDS011;26355;45.528;9.234;2023-06-14T08:53:30;17.00;;;7.90;;
40669;SDS011;26355;45.528;9.234;2023-06-14T08:55:57;17.08;;;7.43;;
40669;SDS011;26355;45.528;9.234;2023-06-14T08:58:26;15.90;;;7.03;;
40669;SDS011;26355;45.528;9.234;2023-06-14T09:00:54;18.95;;;7.53;;
40669;SDS011;26355;45.528;9.234;2023-06-14T09:03:20;16.60;;;7.43;;
40669;SDS011;26355;45.528;9.234;2023-06-14T09:05:47;17.52;;;8.23;;
40669;SDS011;26355;45.528;9.234;2023-06-14T09:08:12;17.50;;;7.35;;
40669;SDS011;26355;45.528;9.234;2023-06-14T09:10:39;18.30;;;8.02;;
40669;SDS011;26355;45.528;9.234;2023-06-14T09:15:31;15.90;;;6.93;;
40669;SDS011;26355;45.528;9.234;2023-06-14T09:17:57;17.38;;;7.30;;
40669;SDS011;26355;45.528;9.234;2023-06-14T09:20:25;15.50;;;6.28;;
40669;SDS011;26355;45.528;9.234;2023-06-14T09:22:51;15.57;;;6.38;;
40669;SDS011;26355;45.528;9.234;2023-06-14T09:25:21;15.63;;;6.65;;
40669;SDS011;26355;45.528;9.234;2023-06-14T09:27:47;17.45;;;7.53;;
40669;SDS011;26355;45.528;9.234;2023-06-14T09:30:13;17.80;;;7.40;;
40669;SDS011;26355;45.528;9.234;2023-06-14T09:32:39;17.92;;;7.70;;
40669;SDS011;26355;45.528;9.234;2023-06-14T09:35:08;16.35;;;7.07;;
40669;SDS011;26355;45.528;9.234;2023-06-14T09:37:34;19.25;;;8.05;;
40669;SDS011;26355;45.528;9.234;2023-06-14T09:40:03;16.40;;;7.13;;
40669;SDS011;26355;45.528;9.234;2023-06-14T09:42:29;18.15;;;7.47;;
40669;SDS011;26355;45.528;9.234;2023-06-14T09:44:55;18.95;;;8.10;;
40669;SDS011;26355;45.528;9.234;2023-06-14T09:47:22;19.15;;;7.90;;
40669;SDS011;26355;45.528;9.234;2023-06-14T09:49:49;16.17;;;7.30;;
40669;SDS011;26355;45.528;9.234;2023-06-14T09:52:16;18.85;;;7.40;;
40669;SDS011;26355;45.528;9.234;2023-06-14T09:54:44;15.70;;;7.32;;
40669;SDS011;26355;45.528;9.234;2023-06-14T09:57:12;15.57;;;6.82;;
40669;SDS011;26355;45.528;9.234;2023-06-14T09:59:46;16.60;;;6.85;;
40669;SDS011;26355;45.528;9.234;2023-06-14T10:04:50;16.17;;;7.63;;
40669;SDS011;26355;45.528;9.234;2023-06-14T10:07:22;15.98;;;7.63;;
40669;SDS011;26355;45.528;9.234;2023-06-14T10:09:52;19.40;;;7.95;;
40669;SDS011;26355;45.528;9.234;2023-06-14T10:12:18;17.58;;;7.93;;
40669;SDS011;26355;45.528;9.234;2023-06-14T10:14:50;16.25;;;7.55;;
40669;SDS011;26355;45.528;9.234;2023-06-14T10:17:54;18.02;;;7.40;;
40669;SDS011;26355;45.528;9.234;2023-06-14T10:20:30;15.30;;;6.05;;
40669;SDS011;26355;45.528;9.234;2023-06-14T10:23:07;17.63;;;7.32;;
40669;SDS011;26355;45.528;9.234;2023-06-14T10:25:36;15.48;;;6.60;;
40669;SDS011;26355;45.528;9.234;2023-06-14T10:28:23;16.88;;;7.63;;
40669;SDS011;26355;45.528;9.234;2023-06-14T10:31:05;16.95;;;8.25;;
40669;SDS011;26355;45.528;9.234;2023-06-14T10:33:31;18.05;;;9.40;;
40669;SDS011;26355;45.528;9.234;2023-06-14T10:36:08;19.20;;;8.18;;
40669;SDS011;26355;45.528;9.234;2023-06-14T10:38:35;18.70;;;9.20;;
40669;SDS011;26355;45.528;9.234;2023-06-14T10:41:02;18.08;;;9.23;;
40669;SDS011;26355;45.528;9.234;2023-06-14T10:43:29;18.10;;;8.63;;
40669;SDS011;26355;45.528;9.234;2023-06-14T10:48:42;17.88;;;10.07;;
40669;SDS011;26355;45.528;9.234;2023-06-14T10:51:15;19.95;;;10.50;;
40669;SDS011;26355;45.528;9.234;2023-06-14T10:53:49;18.95;;;8.95;;
40669;SDS011;26355;45.528;9.234;2023-06-14T10:56:28;18.42;;;10.10;;
40669;SDS011;26355;45.528;9.234;2023-06-14T10:58:56;20.92;;;9.80;;
40669;SDS011;26355;45.528;9.234;2023-06-14T11:01:33;18.25;;;9.27;;
40669;SDS011;26355;45.528;9.234;2023-06-14T11:04:08;18.17;;;9.60;;
40669;SDS011;26355;45.528;9.234;2023-06-14T11:06:53;20.02;;;9.98;;
40669;SDS011;26355;45.528;9.234;2023-06-14T11:12:04;18.52;;;10.57;;
40669;SDS011;26355;45.528;9.234;2023-06-14T11:14:33;19.05;;;9.52;;
40669;SDS011;26355;45.528;9.234;2023-06-14T11:16:59;18.67;;;8.90;;
40669;SDS011;26355;45.528;9.234;2023-06-14T11:19:25;19.50;;;9.27;;
40669;SDS011;26355;45.528;9.234;2023-06-14T11:21:53;18.55;;;8.82;;
40669;SDS011;26355;45.528;9.234;2023-06-14T11:24:19;19.77;;;9.13;;
40669;SDS011;26355;45.528;9.234;2023-06-14T11:26:46;18.85;;;8.52;;
40669;SDS011;26355;45.528;9.234;2023-06-14T11:29:14;19.52;;;10.05;;
40669;SDS011;26355;45.528;9.234;2023-06-14T11:31:44;18.98;;;9.88;;
40669;SDS011;26355;45.528;9.234;2023-06-14T11:34:11;18.27;;;9.32;;
40669;SDS011;26355;45.528;9.234;2023-06-14T11:36:37;20.00;;;9.45;;
40669;SDS011;26355;45.528;9.234;2023-06-14T11:39:04;16.83;;;8.27;;
40669;SDS011;26355;45.528;9.234;2023-06-14T11:44:09;15.50;;;6.90;;
40669;SDS011;26355;45.528;9.234;2023-06-14T11:46:36;17.15;;;7.22;;
40669;SDS011;26355;45.528;9.234;2023-06-14T11:49:02;16.20;;;7.20;;
40669;SDS011;26355;45.528;9.234;2023-06-14T11:51:32;17.90;;;7.90;;
40669;SDS011;26355;45.528;9.234;2023-06-14T11:53:59;14.98;;;6.60;;
40669;SDS011;26355;45.528;9.234;2023-06-14T11:56:27;16.23;;;6.00;;
40669;SDS011;26355;45.528;9.234;2023-06-14T11:58:53;17.00;;;7.00;;
40669;SDS011;26355;45.528;9.234;2023-06-14T12:01:22;18.92;;;9.00;;
40669;SDS011;26355;45.528;9.234;2023-06-14T12:03:48;17.00;;;7.78;;
40669;SDS011;26355;45.528;9.234;2023-06-14T12:06:14;17.95;;;7.60;;
40669;SDS011;26355;45.528;9.234;2023-06-14T12:08:40;17.25;;;7.75;;
40669;SDS011;26355;45.528;9.234;2023-06-14T12:11:13;15.63;;;6.95;;
40669;SDS011;26355;45.528;9.234;2023-06-14T12:13:40;16.65;;;7.50;;
40669;SDS011;26355;45.528;9.234;2023-06-14T12:16:07;16.00;;;7.35;;
40669;SDS011;26355;45.528;9.234;2023-06-14T12:18:34;15.45;;;6.88;;
40669;SDS011;26355;45.528;9.234;2023-06-14T12:21:01;16.20;;;7.22;;
40669;SDS011;26355;45.528;9.234;2023-06-14T12:26:12;16.90;;;6.88;;
40669;SDS011;26355;45.528;9.234;2023-06-14T12:28:42;15.52;;;6.18;;
40669;SDS011;26355;45.528;9.234;2023-06-14T12:31:09;17.60;;;7.78;;
40669;SDS011;26355;45.528;9.234;2023-06-14T12:33:36;18.02;;;6.72;;
40669;SDS011;26355;45.528;9.234;2023-06-14T12:36:04;15.88;;;6.70;;
40669;SDS011;26355;45.528;9.234;2023-06-14T12:38:32;16.73;;;6.78;;
40669;SDS011;26355;45.528;9.234;2023-06-14T12:40:58;15.73;;;6.57;;
40669;SDS011;26355;45.528;9.234;2023-06-14T12:43:23;16.42;;;7.40;;
40669;SDS011;26355;45.528;9.234;2023-06-14T12:45:49;15.45;;;5.97;;
40669;SDS011;26355;45.528;9.234;2023-06-14T12:48:15;17.40;;;7.53;;
40669;SDS011;26355;45.528;9.234;2023-06-14T12:50:40;18.90;;;7.47;;
40669;SDS011;26355;45.528;9.234;2023-06-14T12:53:06;15.77;;;7.00;;
40669;SDS011;26355;45.528;9.234;2023-06-14T12:55:32;18.73;;;8.20;;
40669;SDS011;26355;45.528;9.234;2023-06-14T12:57:58;15.82;;;7.30;;
40669;SDS011;26355;45.528;9.234;2023-06-14T13:00:23;15.93;;;7.65;;
40669;SDS011;26355;45.528;9.234;2023-06-14T13:02:51;16.27;;;6.57;;
40669;SDS011;26355;45.528;9.234;2023-06-14T13:05:17;17.35;;;7.43;;
40669;SDS011;26355;45.528;9.234;2023-06-14T13:07:43;15.63;;;5.87;;
40669;SDS011;26355;45.528;9.234;2023-06-14T13:10:09;14.27;;;5.72;;
40669;SDS011;26355;45.528;9.234;2023-06-14T13:12:35;15.10;;;5.70;;
40669;SDS011;26355;45.528;9.234;2023-06-14T13:15:00;15.95;;;5.30;;
40669;SDS011;26355;45.528;9.234;2023-06-14T13:17:26;14.05;;;5.38;;
40669;SDS011;26355;45.528;9.234;2023-06-14T13:19:52;13.30;;;4.90;;
40669;SDS011;26355;45.528;9.234;2023-06-14T13:22:17;14.30;;;5.13;;
40669;SDS011;26355;45.528;9.234;2023-06-14T13:24:43;12.68;;;4.45;;
40669;SDS011;26355;45.528;9.234;2023-06-14T13:27:09;14.27;;;4.85;;
40669;SDS011;26355;45.528;9.234;2023-06-14T13:29:35;12.73;;;4.55;;
40669;SDS011;26355;45.528;9.234;2023-06-14T13:32:02;13.18;;;4.82;;
40669;SDS011;26355;45.528;9.234;2023-06-14T13:34:28;13.73;;;4.60;;
40669;SDS011;26355;45.528;9.234;2023-06-14T13:36:53;12.02;;;4.47;;
40669;SDS011;26355;45.528;9.234;2023-06-14T13:39:19;13.20;;;4.47;;
40669;SDS011;26355;45.528;9.234;2023-06-14T13:41:44;10.90;;;4.00;;
40669;SDS011;26355;45.528;9.234;2023-06-14T13:44:10;12.77;;;4.75;;
40669;SDS011;26355;45.528;9.234;2023-06-14T13:46:39;13.25;;;4.35;;
40669;SDS011;26355;45.528;9.234;2023-06-14T13:49:07;14.25;;;4.82;;
40669;SDS011;26355;45.528;9.234;2023-06-14T13:51:33;11.40;;;4.05;;
40669;SDS011;26355;45.528;9.234;2023-06-14T13:54:00;11.50;;;3.47;;
40669;SDS011;26355;45.528;9.234;2023-06-14T13:56:26;12.30;;;3.53;;
40669;SDS011;26355;45.528;9.234;2023-06-14T13:58:51;12.50;;;4.40;;
40669;SDS011;26355;45.528;9.234;2023-06-14T14:01:17;12.80;;;4.75;;
40669;SDS011;26355;45.528;9.234;2023-06-14T14:03:44;11.93;;;4.35;;
40669;SDS011;26355;45.528;9.234;2023-06-14T14:06:14;12.07;;;4.10;;
40669;SDS011;26355;45.528;9.234;2023-06-14T14:08:40;11.90;;;4.38;;
40669;SDS011;26355;45.528;9.234;2023-06-14T14:11:07;13.73;;;4.60;;
40669;SDS011;26355;45.528;9.234;2023-06-14T14:13:33;12.60;;;4.70;;
40669;SDS011;26355;45.528;9.234;2023-06-14T14:16:01;12.57;;;4.57;;
40669;SDS011;26355;45.528;9.234;2023-06-14T14:18:27;13.40;;;4.57;;
40669;SDS011;26355;45.528;9.234;2023-06-14T14:20:53;10.82;;;3.78;;
40669;SDS011;26355;45.528;9.234;2023-06-14T14:23:19;10.82;;;4.00;;
40669;SDS011;26355;45.528;9.234;2023-06-14T14:25:45;10.75;;;4.03;;
40669;SDS011;26355;45.528;9.234;2023-06-14T14:28:11;11.43;;;4.00;;
40669;SDS011;26355;45.528;9.234;2023-06-14T14:30:38;11.55;;;4.07;;
40669;SDS011;26355;45.528;9.234;2023-06-14T14:33:05;14.80;;;4.90;;
40669;SDS011;26355;45.528;9.234;2023-06-14T14:35:31;13.45;;;4.45;;
40669;SDS011;26355;45.528;9.234;2023-06-14T14:37:57;13.77;;;4.82;;
40669;SDS011;26355;45.528;9.234;2023-06-14T14:40:23;12.05;;;4.05;;
40669;SDS011;26355;45.528;9.234;2023-06-14T14:42:48;14.30;;;4.50;;
40669;SDS011;26355;45.528;9.234;2023-06-14T14:45:14;11.75;;;4.55;;
40669;SDS011;26355;45.528;9.234;2023-06-14T14:47:40;11.52;;;4.28;;
40669;SDS011;26355;45.528;9.234;2023-06-14T14:50:05;11.57;;;3.97;;
40669;SDS011;26355;45.528;9.234;2023-06-14T14:52:34;14.18;;;4.50;;